sensor_id;sensor_type;location;lat;lon;timestamp;P1;durP1;ratioP1;P2;durP2;ratioP2
78410;SDS011;67706;51.074;-1.796;2023-04-24T00:02:35;17.10;;;7.05;;
78410;SDS011;67706;51.074;-1.796;2023-04-24T00:05:03;17.73;;;7.60;;
78410;SDS011;67706;51.074;-1.796;2023-04-24T00:07:30;16.00;;;7.05;;
78410;SDS011;67706;51.074;-1.796;2023-04-24T00:09:57;14.32;;;7.10;;
78410;SDS011;67706;51.074;-1.796;2023-04-24T00:12:25;15.82;;;7.05;;
78410;SDS011;67706;51.074;-1.796;2023-04-24T00:14:52;15.13;;;7.70;;
78410;SDS011;67706;51.074;-1.796;2023-04-24T00:17:20;14.15;;;6.85;;
78410;SDS011;67706;51.074;-1.796;2023-04-24T00:19:47;14.75;;;7.13;;
78410;SDS011;67706;51.074;-1.796;2023-04-24T00:22:15;14.18;;;7.05;;
78410;SDS011;67706;51.074;-1.796;2023-04-24T00:24:42;16.77;;;7.85;;
78410;SDS011;67706;51.074;-1.796;2023-04-24T00:27:09;17.17;;;7.60;;
78410;SDS011;67706;51.074;-1.796;2023-04-24T00:29:36;16.15;;;7.53;;
78410;SDS011;67706;51.074;-1.796;2023-04-24T00:32:02;15.38;;;7.50;;
78410;SDS011;67706;51.074;-1.796;2023-04-24T00:34:30;16.25;;;8.07;;
78410;SDS011;67706;51.074;-1.796;2023-04-24T00:36:57;15.73;;;6.72;;
78410;SDS011;67706;51.074;-1.796;2023-04-24T00:39:24;13.18;;;6.55;;
78410;SDS011;67706;51.074;-1.796;2023-04-24T00:41:51;16.90;;;7.43;;
78410;SDS011;67706;51.074;-1.796;2023-04-24T00:44:18;16.20;;;7.43;;
78410;SDS011;67706;51.074;-1.796;2023-04-24T00:46:45;16.27;;;7.85;;
78410;SDS011;67706;51.074;-1.796;2023-04-24T00:49:16;17.65;;;8.32;;
78410;SDS011;67706;51.074;-1.796;2023-04-24T00:51:45;18.13;;;8.55;;
78410;SDS011;67706;51.074;-1.796;2023-04-24T00:54:12;18.00;;;7.95;;
78410;SDS011;67706;51.074;-1.796;2023-04-24T00:56:39;14.48;;;7.68;;
78410;SDS011;67706;51.074;-1.796;2023-04-24T00:59:07;16.55;;;7.97;;
78410;SDS011;67706;51.074;-1.796;2023-04-24T01:01:34;16.75;;;8.00;;
78410;SDS011;67706;51.074;-1.796;2023-04-24T01:04:02;15.10;;;6.88;;
78410;SDS011;67706;51.074;-1.796;2023-04-24T01:06:29;15.98;;;7.53;;
78410;SDS011;67706;51.074;-1.796;2023-04-24T01:08:58;14.00;;;7.03;;
78410;SDS011;67706;51.074;-1.796;2023-04-24T01:11:26;13.85;;;6.28;;
78410;SDS011;67706;51.074;-1.796;2023-04-24T01:13:52;10.98;;;5.32;;
78410;SDS011;67706;51.074;-1.796;2023-04-24T01:16:19;11.95;;;5.85;;
78410;SDS011;67706;51.074;-1.796;2023-04-24T01:18:46;13.05;;;6.40;;
78410;SDS011;67706;51.074;-1.796;2023-04-24T01:21:14;13.85;;;5.80;;
78410;SDS011;67706;51.074;-1.796;2023-04-24T01:23:43;12.20;;;6.32;;
78410;SDS011;67706;51.074;-1.796;2023-04-24T01:26:11;12.65;;;6.28;;
78410;SDS011;67706;51.074;-1.796;2023-04-24T01:28:39;12.20;;;6.15;;
78410;SDS011;67706;51.074;-1.796;2023-04-24T01:31:05;15.60;;;7.00;;
78410;SDS011;67706;51.074;-1.796;2023-04-24T01:33:32;12.45;;;6.28;;
78410;SDS011;67706;51.074;-1.796;2023-04-24T01:35:59;13.23;;;6.18;;
78410;SDS011;67706;51.074;-1.796;2023-04-24T01:38:26;13.00;;;5.95;;
78410;SDS011;67706;51.074;-1.796;2023-04-24T01:40:54;12.05;;;5.93;;
78410;SDS011;67706;51.074;-1.796;2023-04-24T01:43:21;12.30;;;6.13;;
78410;SDS011;67706;51.074;-1.796;2023-04-24T01:45:48;10.85;;;5.90;;
78410;SDS011;67706;51.074;-1.796;2023-04-24T01:48:14;13.60;;;6.70;;
78410;SDS011;67706;51.074;-1.796;2023-04-24T01:50:41;14.82;;;6.47;;
78410;SDS011;67706;51.074;-1.796;2023-04-24T01:53:08;12.48;;;6.18;;
78410;SDS011;67706;51.074;-1.796;2023-04-24T01:55:35;13.55;;;6.68;;
78410;SDS011;67706;51.074;-1.796;2023-04-24T01:58:03;15.93;;;7.18;;
78410;SDS011;67706;51.074;-1.796;2023-04-24T02:00:30;14.27;;;6.75;;
78410;SDS011;67706;51.074;-1.796;2023-04-24T02:02:56;13.75;;;6.38;;
78410;SDS011;67706;51.074;-1.796;2023-04-24T02:05:23;13.52;;;6.22;;
78410;SDS011;67706;51.074;-1.796;2023-04-24T02:07:50;14.43;;;6.47;;
78410;SDS011;67706;51.074;-1.796;2023-04-24T02:10:16;16.70;;;6.45;;
78410;SDS011;67706;51.074;-1.796;2023-04-24T02:12:43;14.38;;;6.70;;
78410;SDS011;67706;51.074;-1.796;2023-04-24T02:15:11;14.10;;;5.95;;
78410;SDS011;67706;51.074;-1.796;2023-04-24T02:17:38;13.43;;;6.78;;
78410;SDS011;67706;51.074;-1.796;2023-04-24T02:20:05;14.15;;;6.07;;
78410;SDS011;67706;51.074;-1.796;2023-04-24T02:22:33;13.38;;;6.70;;
78410;SDS011;67706;51.074;-1.796;2023-04-24T02:25:00;12.55;;;5.63;;
78410;SDS011;67706;51.074;-1.796;2023-04-24T02:27:26;13.70;;;6.25;;
78410;SDS011;67706;51.074;-1.796;2023-04-24T02:29:53;12.70;;;6.38;;
78410;SDS011;67706;51.074;-1.796;2023-04-24T02:32:21;14.48;;;6.47;;
78410;SDS011;67706;51.074;-1.796;2023-04-24T02:34:48;14.15;;;6.50;;
78410;SDS011;67706;51.074;-1.796;2023-04-24T02:37:15;13.70;;;6.53;;
78410;SDS011;67706;51.074;-1.796;2023-04-24T02:39:42;13.20;;;6.35;;
78410;SDS011;67706;51.074;-1.796;2023-04-24T02:44:35;11.35;;;5.88;;
78410;SDS011;67706;51.074;-1.796;2023-04-24T02:47:02;13.07;;;5.90;;
78410;SDS011;67706;51.074;-1.796;2023-04-24T02:49:30;13.18;;;6.45;;
78410;SDS011;67706;51.074;-1.796;2023-04-24T02:51:56;14.80;;;6.28;;
78410;SDS011;67706;51.074;-1.796;2023-04-24T02:54:23;12.45;;;6.03;;
78410;SDS011;67706;51.074;-1.796;2023-04-24T02:56:51;11.43;;;5.97;;
78410;SDS011;67706;51.074;-1.796;2023-04-24T02:59:18;12.50;;;6.05;;
78410;SDS011;67706;51.074;-1.796;2023-04-24T03:01:45;12.48;;;5.68;;
78410;SDS011;67706;51.074;-1.796;2023-04-24T03:06:39;11.50;;;5.20;;
78410;SDS011;67706;51.074;-1.796;2023-04-24T03:09:06;11.82;;;5.82;;
78410;SDS011;67706;51.074;-1.796;2023-04-24T03:11:33;12.75;;;5.30;;
78410;SDS011;67706;51.074;-1.796;2023-04-24T03:13:59;13.20;;;5.50;;
78410;SDS011;67706;51.074;-1.796;2023-04-24T03:16:27;11.82;;;5.78;;
78410;SDS011;67706;51.074;-1.796;2023-04-24T03:18:54;13.70;;;6.47;;
78410;SDS011;67706;51.074;-1.796;2023-04-24T03:21:20;11.80;;;5.85;;
78410;SDS011;67706;51.074;-1.796;2023-04-24T03:23:48;13.38;;;5.88;;
78410;SDS011;67706;51.074;-1.796;2023-04-24T03:26:15;15.43;;;7.45;;
78410;SDS011;67706;51.074;-1.796;2023-04-24T03:28:42;13.32;;;6.68;;
78410;SDS011;67706;51.074;-1.796;2023-04-24T03:31:09;12.73;;;6.00;;
78410;SDS011;67706;51.074;-1.796;2023-04-24T03:33:35;13.50;;;6.03;;
78410;SDS011;67706;51.074;-1.796;2023-04-24T03:36:02;10.40;;;5.25;;
78410;SDS011;67706;51.074;-1.796;2023-04-24T03:38:30;12.95;;;6.15;;
78410;SDS011;67706;51.074;-1.796;2023-04-24T03:40:58;14.98;;;6.78;;
78410;SDS011;67706;51.074;-1.796;2023-04-24T03:43:25;14.05;;;5.95;;
78410;SDS011;67706;51.074;-1.796;2023-04-24T03:45:52;12.85;;;6.13;;
78410;SDS011;67706;51.074;-1.796;2023-04-24T03:48:19;12.25;;;6.47;;
78410;SDS011;67706;51.074;-1.796;2023-04-24T03:50:45;13.10;;;6.63;;
78410;SDS011;67706;51.074;-1.796;2023-04-24T03:53:12;15.85;;;8.43;;
78410;SDS011;67706;51.074;-1.796;2023-04-24T03:58:07;14.50;;;6.88;;
78410;SDS011;67706;51.074;-1.796;2023-04-24T04:00:34;15.20;;;6.35;;
78410;SDS011;67706;51.074;-1.796;2023-04-24T04:03:02;12.68;;;5.65;;
78410;SDS011;67706;51.074;-1.796;2023-04-24T04:05:29;13.23;;;5.95;;
78410;SDS011;67706;51.074;-1.796;2023-04-24T04:07:55;17.05;;;7.18;;
78410;SDS011;67706;51.074;-1.796;2023-04-24T04:10:22;13.13;;;5.82;;
78410;SDS011;67706;51.074;-1.796;2023-04-24T04:12:49;17.67;;;6.40;;
78410;SDS011;67706;51.074;-1.796;2023-04-24T04:15:17;11.75;;;5.72;;
78410;SDS011;67706;51.074;-1.796;2023-04-24T04:17:44;12.57;;;6.18;;
78410;SDS011;67706;51.074;-1.796;2023-04-24T04:20:11;14.80;;;6.47;;
78410;SDS011;67706;51.074;-1.796;2023-04-24T04:22:38;13.30;;;6.60;;
78410;SDS011;67706;51.074;-1.796;2023-04-24T04:25:05;12.00;;;6.43;;
78410;SDS011;67706;51.074;-1.796;2023-04-24T04:27:33;14.68;;;7.50;;
78410;SDS011;67706;51.074;-1.796;2023-04-24T04:30:01;14.50;;;6.90;;
78410;SDS011;67706;51.074;-1.796;2023-04-24T04:32:31;15.52;;;6.25;;
78410;SDS011;67706;51.074;-1.796;2023-04-24T04:34:58;13.02;;;6.70;;
78410;SDS011;67706;51.074;-1.796;2023-04-24T04:37:28;13.60;;;6.22;;
78410;SDS011;67706;51.074;-1.796;2023-04-24T04:39:54;18.05;;;7.22;;
78410;SDS011;67706;51.074;-1.796;2023-04-24T04:42:23;13.45;;;6.13;;
78410;SDS011;67706;51.074;-1.796;2023-04-24T04:44:49;14.57;;;6.88;;
78410;SDS011;67706;51.074;-1.796;2023-04-24T04:47:16;14.40;;;7.32;;
78410;SDS011;67706;51.074;-1.796;2023-04-24T04:49:44;16.67;;;6.72;;
78410;SDS011;67706;51.074;-1.796;2023-04-24T04:52:11;12.52;;;6.40;;
78410;SDS011;67706;51.074;-1.796;2023-04-24T04:54:38;17.98;;;6.80;;
78410;SDS011;67706;51.074;-1.796;2023-04-24T04:57:05;12.85;;;6.28;;
78410;SDS011;67706;51.074;-1.796;2023-04-24T04:59:33;16.75;;;6.88;;
78410;SDS011;67706;51.074;-1.796;2023-04-24T05:01:59;12.68;;;5.88;;
78410;SDS011;67706;51.074;-1.796;2023-04-24T05:04:26;13.32;;;6.25;;
78410;SDS011;67706;51.074;-1.796;2023-04-24T05:06:54;14.32;;;6.28;;
78410;SDS011;67706;51.074;-1.796;2023-04-24T05:09:21;14.90;;;6.28;;
78410;SDS011;67706;51.074;-1.796;2023-04-24T05:11:48;12.63;;;5.50;;
78410;SDS011;67706;51.074;-1.796;2023-04-24T05:14:15;10.90;;;5.82;;
78410;SDS011;67706;51.074;-1.796;2023-04-24T05:16:43;12.23;;;6.00;;
78410;SDS011;67706;51.074;-1.796;2023-04-24T05:19:10;12.07;;;5.32;;
78410;SDS011;67706;51.074;-1.796;2023-04-24T05:21:36;12.27;;;6.10;;
78410;SDS011;67706;51.074;-1.796;2023-04-24T05:24:05;13.88;;;6.93;;
78410;SDS011;67706;51.074;-1.796;2023-04-24T05:26:32;11.95;;;6.40;;
78410;SDS011;67706;51.074;-1.796;2023-04-24T05:29:00;14.35;;;6.35;;
78410;SDS011;67706;51.074;-1.796;2023-04-24T05:31:27;11.88;;;6.13;;
78410;SDS011;67706;51.074;-1.796;2023-04-24T05:33:54;14.35;;;6.38;;
78410;SDS011;67706;51.074;-1.796;2023-04-24T05:36:21;15.80;;;6.18;;
78410;SDS011;67706;51.074;-1.796;2023-04-24T05:38:47;11.68;;;6.50;;
78410;SDS011;67706;51.074;-1.796;2023-04-24T05:41:15;15.70;;;7.32;;
78410;SDS011;67706;51.074;-1.796;2023-04-24T05:43:42;15.05;;;6.82;;
78410;SDS011;67706;51.074;-1.796;2023-04-24T05:48:35;11.32;;;5.55;;
78410;SDS011;67706;51.074;-1.796;2023-04-24T05:51:02;11.68;;;6.43;;
78410;SDS011;67706;51.074;-1.796;2023-04-24T05:53:29;13.43;;;6.35;;
78410;SDS011;67706;51.074;-1.796;2023-04-24T05:55:56;12.60;;;6.13;;
78410;SDS011;67706;51.074;-1.796;2023-04-24T05:58:24;18.70;;;7.60;;
78410;SDS011;67706;51.074;-1.796;2023-04-24T06:00:51;20.92;;;8.80;;
78410;SDS011;67706;51.074;-1.796;2023-04-24T06:03:18;14.50;;;6.97;;
78410;SDS011;67706;51.074;-1.796;2023-04-24T06:05:45;14.68;;;6.50;;
78410;SDS011;67706;51.074;-1.796;2023-04-24T06:08:11;14.20;;;6.60;;
78410;SDS011;67706;51.074;-1.796;2023-04-24T06:10:38;13.15;;;6.35;;
78410;SDS011;67706;51.074;-1.796;2023-04-24T06:13:05;10.88;;;6.18;;
78410;SDS011;67706;51.074;-1.796;2023-04-24T06:15:33;13.15;;;6.40;;
78410;SDS011;67706;51.074;-1.796;2023-04-24T06:18:00;12.65;;;5.75;;
78410;SDS011;67706;51.074;-1.796;2023-04-24T06:20:26;13.02;;;6.40;;
78410;SDS011;67706;51.074;-1.796;2023-04-24T06:22:53;12.52;;;6.38;;
78410;SDS011;67706;51.074;-1.796;2023-04-24T06:25:20;12.00;;;5.88;;
78410;SDS011;67706;51.074;-1.796;2023-04-24T06:27:47;12.80;;;5.85;;
78410;SDS011;67706;51.074;-1.796;2023-04-24T06:30:13;10.80;;;5.30;;
78410;SDS011;67706;51.074;-1.796;2023-04-24T06:32:41;13.60;;;5.57;;
78410;SDS011;67706;51.074;-1.796;2023-04-24T06:35:08;12.18;;;5.78;;
78410;SDS011;67706;51.074;-1.796;2023-04-24T06:37:36;12.85;;;5.70;;
78410;SDS011;67706;51.074;-1.796;2023-04-24T06:40:03;9.98;;;5.68;;
78410;SDS011;67706;51.074;-1.796;2023-04-24T06:42:31;12.45;;;4.93;;
78410;SDS011;67706;51.074;-1.796;2023-04-24T06:44:57;10.55;;;5.07;;
78410;SDS011;67706;51.074;-1.796;2023-04-24T06:47:24;9.73;;;5.20;;
78410;SDS011;67706;51.074;-1.796;2023-04-24T06:49:52;13.85;;;6.53;;
78410;SDS011;67706;51.074;-1.796;2023-04-24T06:52:20;11.90;;;5.75;;
78410;SDS011;67706;51.074;-1.796;2023-04-24T06:54:47;12.75;;;5.68;;
78410;SDS011;67706;51.074;-1.796;2023-04-24T06:57:13;14.43;;;5.85;;
78410;SDS011;67706;51.074;-1.796;2023-04-24T06:59:41;14.00;;;6.88;;
78410;SDS011;67706;51.074;-1.796;2023-04-24T07:02:07;16.88;;;6.90;;
78410;SDS011;67706;51.074;-1.796;2023-04-24T07:04:34;12.60;;;6.93;;
78410;SDS011;67706;51.074;-1.796;2023-04-24T07:07:03;14.02;;;6.68;;
78410;SDS011;67706;51.074;-1.796;2023-04-24T07:09:31;15.05;;;6.82;;
78410;SDS011;67706;51.074;-1.796;2023-04-24T07:11:57;11.40;;;6.55;;
78410;SDS011;67706;51.074;-1.796;2023-04-24T07:14:24;14.38;;;6.55;;
78410;SDS011;67706;51.074;-1.796;2023-04-24T07:16:51;14.95;;;5.88;;
78410;SDS011;67706;51.074;-1.796;2023-04-24T07:19:17;9.55;;;5.97;;
78410;SDS011;67706;51.074;-1.796;2023-04-24T07:21:44;12.38;;;6.13;;
78410;SDS011;67706;51.074;-1.796;2023-04-24T07:24:12;12.82;;;5.65;;
78410;SDS011;67706;51.074;-1.796;2023-04-24T07:26:39;13.52;;;6.18;;
78410;SDS011;67706;51.074;-1.796;2023-04-24T07:29:06;11.00;;;4.80;;
78410;SDS011;67706;51.074;-1.796;2023-04-24T07:31:32;12.68;;;6.22;;
78410;SDS011;67706;51.074;-1.796;2023-04-24T07:33:59;9.05;;;5.63;;
78410;SDS011;67706;51.074;-1.796;2023-04-24T07:36:26;11.13;;;5.63;;
78410;SDS011;67706;51.074;-1.796;2023-04-24T07:38:53;15.05;;;6.57;;
78410;SDS011;67706;51.074;-1.796;2023-04-24T07:41:22;10.40;;;5.82;;
78410;SDS011;67706;51.074;-1.796;2023-04-24T07:43:49;10.50;;;5.75;;
78410;SDS011;67706;51.074;-1.796;2023-04-24T07:46:15;11.07;;;6.00;;
78410;SDS011;67706;51.074;-1.796;2023-04-24T07:48:43;17.45;;;7.32;;
78410;SDS011;67706;51.074;-1.796;2023-04-24T07:51:09;13.45;;;5.65;;
78410;SDS011;67706;51.074;-1.796;2023-04-24T07:53:38;15.07;;;5.75;;
78410;SDS011;67706;51.074;-1.796;2023-04-24T07:56:05;12.35;;;6.05;;
78410;SDS011;67706;51.074;-1.796;2023-04-24T07:58:33;9.60;;;5.03;;
78410;SDS011;67706;51.074;-1.796;2023-04-24T08:01:00;13.05;;;5.90;;
78410;SDS011;67706;51.074;-1.796;2023-04-24T08:03:26;10.50;;;5.93;;
78410;SDS011;67706;51.074;-1.796;2023-04-24T08:05:53;13.35;;;5.60;;
78410;SDS011;67706;51.074;-1.796;2023-04-24T08:08:21;11.55;;;6.05;;
78410;SDS011;67706;51.074;-1.796;2023-04-24T08:10:48;11.35;;;5.72;;
78410;SDS011;67706;51.074;-1.796;2023-04-24T08:13:15;15.35;;;6.25;;
78410;SDS011;67706;51.074;-1.796;2023-04-24T08:15:43;12.45;;;6.32;;
78410;SDS011;67706;51.074;-1.796;2023-04-24T08:18:10;12.80;;;6.18;;
78410;SDS011;67706;51.074;-1.796;2023-04-24T08:20:37;11.13;;;5.80;;
78410;SDS011;67706;51.074;-1.796;2023-04-24T08:23:03;12.23;;;5.10;;
78410;SDS011;67706;51.074;-1.796;2023-04-24T08:25:30;10.13;;;5.22;;
78410;SDS011;67706;51.074;-1.796;2023-04-24T08:27:57;9.95;;;5.47;;
78410;SDS011;67706;51.074;-1.796;2023-04-24T08:30:24;11.45;;;6.00;;
78410;SDS011;67706;51.074;-1.796;2023-04-24T08:32:52;13.43;;;6.38;;
78410;SDS011;67706;51.074;-1.796;2023-04-24T08:35:19;11.20;;;5.32;;
78410;SDS011;67706;51.074;-1.796;2023-04-24T08:37:46;13.23;;;5.70;;
78410;SDS011;67706;51.074;-1.796;2023-04-24T08:40:14;12.30;;;6.07;;
78410;SDS011;67706;51.074;-1.796;2023-04-24T08:42:42;13.57;;;6.22;;
78410;SDS011;67706;51.074;-1.796;2023-04-24T08:45:09;13.63;;;5.75;;
78410;SDS011;67706;51.074;-1.796;2023-04-24T08:47:37;11.63;;;6.70;;
78410;SDS011;67706;51.074;-1.796;2023-04-24T08:50:07;11.73;;;5.47;;
78410;SDS011;67706;51.074;-1.796;2023-04-24T08:52:35;13.07;;;5.63;;
78410;SDS011;67706;51.074;-1.796;2023-04-24T08:55:02;15.60;;;6.68;;
78410;SDS011;67706;51.074;-1.796;2023-04-24T08:57:29;13.70;;;6.45;;
78410;SDS011;67706;51.074;-1.796;2023-04-24T08:59:58;16.00;;;6.78;;
78410;SDS011;67706;51.074;-1.796;2023-04-24T09:02:25;14.43;;;6.13;;
78410;SDS011;67706;51.074;-1.796;2023-04-24T09:04:52;15.35;;;6.65;;
78410;SDS011;67706;51.074;-1.796;2023-04-24T09:07:22;13.48;;;6.72;;
78410;SDS011;67706;51.074;-1.796;2023-04-24T09:09:51;14.93;;;6.95;;
78410;SDS011;67706;51.074;-1.796;2023-04-24T09:12:18;9.80;;;5.80;;
78410;SDS011;67706;51.074;-1.796;2023-04-24T09:14:45;13.05;;;6.57;;
78410;SDS011;67706;51.074;-1.796;2023-04-24T09:17:14;13.05;;;6.45;;
78410;SDS011;67706;51.074;-1.796;2023-04-24T09:19:41;11.35;;;6.25;;
78410;SDS011;67706;51.074;-1.796;2023-04-24T09:22:07;17.98;;;7.10;;
78410;SDS011;67706;51.074;-1.796;2023-04-24T09:24:37;11.15;;;6.05;;
78410;SDS011;67706;51.074;-1.796;2023-04-24T09:27:04;13.35;;;6.00;;
78410;SDS011;67706;51.074;-1.796;2023-04-24T09:29:31;13.38;;;6.38;;
78410;SDS011;67706;51.074;-1.796;2023-04-24T09:31:58;12.43;;;6.70;;
78410;SDS011;67706;51.074;-1.796;2023-04-24T09:34:26;11.63;;;6.25;;
78410;SDS011;67706;51.074;-1.796;2023-04-24T09:36:53;11.25;;;5.78;;
78410;SDS011;67706;51.074;-1.796;2023-04-24T09:39:20;10.65;;;5.65;;
78410;SDS011;67706;51.074;-1.796;2023-04-24T09:41:48;10.15;;;5.75;;
78410;SDS011;67706;51.074;-1.796;2023-04-24T09:44:17;7.00;;;4.28;;
78410;SDS011;67706;51.074;-1.796;2023-04-24T09:46:48;6.75;;;3.92;;
78410;SDS011;67706;51.074;-1.796;2023-04-24T09:49:16;7.05;;;4.32;;
78410;SDS011;67706;51.074;-1.796;2023-04-24T09:51:48;9.75;;;4.60;;
78410;SDS011;67706;51.074;-1.796;2023-04-24T09:54:15;9.15;;;4.60;;
78410;SDS011;67706;51.074;-1.796;2023-04-24T09:56:43;8.38;;;4.05;;
78410;SDS011;67706;51.074;-1.796;2023-04-24T09:59:12;6.95;;;3.90;;
78410;SDS011;67706;51.074;-1.796;2023-04-24T10:01:39;6.53;;;3.58;;
78410;SDS011;67706;51.074;-1.796;2023-04-24T10:04:15;6.47;;;3.80;;
78410;SDS011;67706;51.074;-1.796;2023-04-24T10:06:43;10.50;;;4.50;;
78410;SDS011;67706;51.074;-1.796;2023-04-24T10:09:10;7.22;;;4.35;;
78410;SDS011;67706;51.074;-1.796;2023-04-24T10:11:39;9.68;;;4.18;;
78410;SDS011;67706;51.074;-1.796;2023-04-24T10:14:08;7.57;;;3.97;;
78410;SDS011;67706;51.074;-1.796;2023-04-24T10:16:37;6.38;;;4.78;;
78410;SDS011;67706;51.074;-1.796;2023-04-24T10:19:04;7.80;;;4.35;;
78410;SDS011;67706;51.074;-1.796;2023-04-24T10:21:31;7.47;;;4.30;;
78410;SDS011;67706;51.074;-1.796;2023-04-24T10:23:58;9.75;;;4.70;;
78410;SDS011;67706;51.074;-1.796;2023-04-24T10:26:28;8.20;;;3.97;;
78410;SDS011;67706;51.074;-1.796;2023-04-24T10:28:56;7.57;;;4.05;;
78410;SDS011;67706;51.074;-1.796;2023-04-24T10:31:24;8.05;;;4.38;;
78410;SDS011;67706;51.074;-1.796;2023-04-24T10:33:53;10.40;;;4.32;;
78410;SDS011;67706;51.074;-1.796;2023-04-24T10:36:22;7.22;;;4.32;;
78410;SDS011;67706;51.074;-1.796;2023-04-24T10:38:51;8.80;;;4.90;;
78410;SDS011;67706;51.074;-1.796;2023-04-24T10:41:21;8.60;;;4.50;;
78410;SDS011;67706;51.074;-1.796;2023-04-24T10:43:49;9.15;;;4.85;;
78410;SDS011;67706;51.074;-1.796;2023-04-24T10:46:30;9.07;;;4.72;;
78410;SDS011;67706;51.074;-1.796;2023-04-24T10:48:58;9.50;;;4.63;;
78410;SDS011;67706;51.074;-1.796;2023-04-24T10:51:42;7.88;;;4.65;;
78410;SDS011;67706;51.074;-1.796;2023-04-24T10:54:21;10.05;;;5.72;;
78410;SDS011;67706;51.074;-1.796;2023-04-24T10:56:49;9.20;;;5.32;;
78410;SDS011;67706;51.074;-1.796;2023-04-24T10:59:23;9.32;;;6.07;;
78410;SDS011;67706;51.074;-1.796;2023-04-24T11:01:52;10.63;;;5.72;;
78410;SDS011;67706;51.074;-1.796;2023-04-24T11:04:30;9.77;;;5.90;;
78410;SDS011;67706;51.074;-1.796;2023-04-24T11:06:57;7.45;;;5.00;;
78410;SDS011;67706;51.074;-1.796;2023-04-24T11:09:26;9.43;;;4.88;;
78410;SDS011;67706;51.074;-1.796;2023-04-24T11:12:02;8.60;;;5.32;;
78410;SDS011;67706;51.074;-1.796;2023-04-24T11:14:31;9.43;;;5.28;;
78410;SDS011;67706;51.074;-1.796;2023-04-24T11:17:30;9.13;;;5.13;;
78410;SDS011;67706;51.074;-1.796;2023-04-24T11:20:03;7.93;;;4.47;;
78410;SDS011;67706;51.074;-1.796;2023-04-24T11:22:32;7.18;;;4.60;;
78410;SDS011;67706;51.074;-1.796;2023-04-24T11:25:00;6.50;;;3.83;;
78410;SDS011;67706;51.074;-1.796;2023-04-24T11:27:29;8.10;;;3.92;;
78410;SDS011;67706;51.074;-1.796;2023-04-24T11:30:00;15.13;;;7.72;;
78410;SDS011;67706;51.074;-1.796;2023-04-24T11:32:28;11.40;;;4.75;;
78410;SDS011;67706;51.074;-1.796;2023-04-24T11:34:57;9.50;;;5.10;;
78410;SDS011;67706;51.074;-1.796;2023-04-24T11:37:26;10.73;;;5.65;;
78410;SDS011;67706;51.074;-1.796;2023-04-24T11:39:54;13.98;;;5.57;;
78410;SDS011;67706;51.074;-1.796;2023-04-24T11:42:22;9.15;;;4.88;;
78410;SDS011;67706;51.074;-1.796;2023-04-24T11:44:52;7.38;;;3.53;;
78410;SDS011;67706;51.074;-1.796;2023-04-24T11:47:20;4.63;;;2.38;;
78410;SDS011;67706;51.074;-1.796;2023-04-24T11:49:54;5.28;;;2.40;;
78410;SDS011;67706;51.074;-1.796;2023-04-24T11:52:20;3.25;;;2.13;;
78410;SDS011;67706;51.074;-1.796;2023-04-24T11:54:49;3.63;;;2.05;;
78410;SDS011;67706;51.074;-1.796;2023-04-24T11:57:16;2.17;;;1.42;;
78410;SDS011;67706;51.074;-1.796;2023-04-24T11:59:46;2.50;;;1.63;;
78410;SDS011;67706;51.074;-1.796;2023-04-24T12:02:19;3.65;;;1.92;;
78410;SDS011;67706;51.074;-1.796;2023-04-24T12:04:47;2.25;;;1.63;;
78410;SDS011;67706;51.074;-1.796;2023-04-24T12:07:13;3.22;;;1.75;;
78410;SDS011;67706;51.074;-1.796;2023-04-24T12:09:40;4.18;;;2.00;;
78410;SDS011;67706;51.074;-1.796;2023-04-24T12:12:10;5.60;;;2.67;;
78410;SDS011;67706;51.074;-1.796;2023-04-24T12:14:47;3.65;;;1.90;;
78410;SDS011;67706;51.074;-1.796;2023-04-24T12:17:15;5.57;;;2.38;;
78410;SDS011;67706;51.074;-1.796;2023-04-24T12:19:45;4.10;;;2.00;;
78410;SDS011;67706;51.074;-1.796;2023-04-24T12:22:13;3.08;;;2.35;;
78410;SDS011;67706;51.074;-1.796;2023-04-24T12:24:56;4.40;;;2.17;;
78410;SDS011;67706;51.074;-1.796;2023-04-24T12:27:25;2.97;;;1.85;;
78410;SDS011;67706;51.074;-1.796;2023-04-24T12:29:52;3.83;;;1.52;;
78410;SDS011;67706;51.074;-1.796;2023-04-24T12:32:19;5.25;;;2.22;;
78410;SDS011;67706;51.074;-1.796;2023-04-24T12:34:46;6.90;;;2.33;;
78410;SDS011;67706;51.074;-1.796;2023-04-24T12:37:13;4.90;;;2.70;;
78410;SDS011;67706;51.074;-1.796;2023-04-24T12:39:42;4.72;;;2.00;;
78410;SDS011;67706;51.074;-1.796;2023-04-24T12:42:11;2.92;;;1.77;;
78410;SDS011;67706;51.074;-1.796;2023-04-24T12:44:39;2.70;;;1.60;;
78410;SDS011;67706;51.074;-1.796;2023-04-24T12:47:06;2.75;;;1.30;;
78410;SDS011;67706;51.074;-1.796;2023-04-24T12:49:32;3.58;;;1.60;;
78410;SDS011;67706;51.074;-1.796;2023-04-24T12:51:59;2.78;;;1.45;;
78410;SDS011;67706;51.074;-1.796;2023-04-24T12:54:26;3.72;;;1.90;;
78410;SDS011;67706;51.074;-1.796;2023-04-24T12:56:58;2.38;;;1.45;;
78410;SDS011;67706;51.074;-1.796;2023-04-24T12:59:25;3.47;;;1.90;;
78410;SDS011;67706;51.074;-1.796;2023-04-24T13:01:53;2.50;;;1.30;;
78410;SDS011;67706;51.074;-1.796;2023-04-24T13:04:20;2.58;;;1.73;;
78410;SDS011;67706;51.074;-1.796;2023-04-24T13:06:46;4.00;;;2.08;;
78410;SDS011;67706;51.074;-1.796;2023-04-24T13:09:13;2.80;;;1.50;;
78410;SDS011;67706;51.074;-1.796;2023-04-24T13:11:40;3.03;;;1.80;;
78410;SDS011;67706;51.074;-1.796;2023-04-24T13:14:06;6.28;;;3.00;;
78410;SDS011;67706;51.074;-1.796;2023-04-24T13:16:33;4.50;;;2.65;;
78410;SDS011;67706;51.074;-1.796;2023-04-24T13:19:01;15.00;;;6.47;;
78410;SDS011;67706;51.074;-1.796;2023-04-24T13:21:28;8.50;;;2.78;;
78410;SDS011;67706;51.074;-1.796;2023-04-24T13:23:55;6.75;;;2.67;;
78410;SDS011;67706;51.074;-1.796;2023-04-24T13:26:22;3.00;;;1.83;;
78410;SDS011;67706;51.074;-1.796;2023-04-24T13:28:49;2.55;;;1.60;;
78410;SDS011;67706;51.074;-1.796;2023-04-24T13:31:15;4.10;;;1.70;;
78410;SDS011;67706;51.074;-1.796;2023-04-24T13:33:42;2.70;;;1.73;;
78410;SDS011;67706;51.074;-1.796;2023-04-24T13:36:10;3.67;;;1.92;;
78410;SDS011;67706;51.074;-1.796;2023-04-24T13:38:37;3.75;;;2.22;;
78410;SDS011;67706;51.074;-1.796;2023-04-24T13:41:03;3.00;;;1.98;;
78410;SDS011;67706;51.074;-1.796;2023-04-24T13:43:30;4.80;;;2.00;;
78410;SDS011;67706;51.074;-1.796;2023-04-24T13:45:57;2.67;;;1.73;;
78410;SDS011;67706;51.074;-1.796;2023-04-24T13:48:26;3.80;;;2.00;;
78410;SDS011;67706;51.074;-1.796;2023-04-24T13:50:53;5.22;;;2.42;;
78410;SDS011;67706;51.074;-1.796;2023-04-24T13:53:21;3.78;;;2.08;;
78410;SDS011;67706;51.074;-1.796;2023-04-24T13:55:48;5.43;;;2.10;;
78410;SDS011;67706;51.074;-1.796;2023-04-24T13:58:15;3.10;;;1.80;;
78410;SDS011;67706;51.074;-1.796;2023-04-24T14:00:41;2.90;;;1.85;;
78410;SDS011;67706;51.074;-1.796;2023-04-24T14:03:08;3.15;;;2.03;;
78410;SDS011;67706;51.074;-1.796;2023-04-24T14:05:36;4.05;;;2.08;;
78410;SDS011;67706;51.074;-1.796;2023-04-24T14:08:02;4.13;;;2.22;;
78410;SDS011;67706;51.074;-1.796;2023-04-24T14:10:30;3.03;;;2.03;;
78410;SDS011;67706;51.074;-1.796;2023-04-24T14:12:57;3.55;;;1.55;;
78410;SDS011;67706;51.074;-1.796;2023-04-24T14:15:24;3.05;;;1.50;;
78410;SDS011;67706;51.074;-1.796;2023-04-24T14:17:50;2.53;;;2.00;;
78410;SDS011;67706;51.074;-1.796;2023-04-24T14:20:17;1.92;;;1.10;;
78410;SDS011;67706;51.074;-1.796;2023-04-24T14:22:44;3.20;;;1.60;;
78410;SDS011;67706;51.074;-1.796;2023-04-24T14:25:11;2.40;;;1.77;;
78410;SDS011;67706;51.074;-1.796;2023-04-24T14:27:39;5.80;;;1.80;;
78410;SDS011;67706;51.074;-1.796;2023-04-24T14:30:06;3.15;;;1.48;;
78410;SDS011;67706;51.074;-1.796;2023-04-24T14:32:34;3.55;;;1.13;;
78410;SDS011;67706;51.074;-1.796;2023-04-24T14:35:01;1.95;;;1.20;;
78410;SDS011;67706;51.074;-1.796;2023-04-24T14:37:27;2.00;;;1.35;;
78410;SDS011;67706;51.074;-1.796;2023-04-24T14:39:54;2.13;;;1.10;;